Time;durP1;ratioP1;P1;durP2;ratioP2;P2;SDS_P1;SDS_P2;PMS_P1;PMS_P2;Temp;Humidity;BMP_temperature;BMP_pressure;BME280_temperature;BME280_humidity;BME280_pressure;Samples;Min_cycle;Max_cycle;Signal;HPM_P1;HPM_P2
2021/12/06 00:00:30;;;;;;;47.58;21.50;;;;;;;0.79;79.69;101288.53;5004790;28;20034;-55
2021/12/06 00:02:59;;;;;;;48.95;20.55;;;;;;;0.68;80.20;101288.06;5001617;28;20034;-54
2021/12/06 00:05:26;;;;;;;42.97;22.30;;;;;;;0.68;80.42;101288.06;5000666;28;20030;-54
2021/12/06 00:07:51;;;;;;;46.40;21.83;;;;;;;0.69;80.60;101292.34;5013278;28;20472;-51
2021/12/06 00:10:17;;;;;;;45.53;21.80;;;;;;;0.67;80.49;101287.25;5004350;28;20072;-55
2021/12/06 00:12:43;;;;;;;44.47;20.80;;;;;;;0.68;80.50;101288.91;4999159;28;20030;-53
2021/12/06 00:15:10;;;;;;;44.78;20.15;;;;;;;0.71;80.32;101288.56;5004287;28;20070;-54
2021/12/06 00:17:36;;;;;;;49.85;21.15;;;;;;;0.71;80.49;101277.19;5000983;28;20479;-54
2021/12/06 00:20:04;;;;;;;42.80;20.15;;;;;;;0.71;80.20;101282.44;5003986;28;20252;-54
2021/12/06 00:22:29;;;;;;;40.42;20.45;;;;;;;0.72;80.36;101287.59;4999807;28;20021;-54
2021/12/06 00:24:56;;;;;;;46.03;20.63;;;;;;;0.73;80.38;101294.50;5004146;28;20029;-54
2021/12/06 00:27:23;;;;;;;47.53;21.77;;;;;;;0.77;80.14;101297.63;4999849;28;20056;-52
2021/12/06 00:29:49;;;;;;;49.20;21.65;;;;;;;0.78;80.05;101297.44;5001956;28;20041;-51
2021/12/06 00:32:15;;;;;;;45.00;22.88;;;;;;;0.81;80.03;101294.47;5003053;28;20026;-55
2021/12/06 00:34:41;;;;;;;45.13;21.58;;;;;;;0.82;80.05;101297.91;5000857;28;20114;-54
2021/12/06 00:39:58;;;;;;;50.83;22.38;;;;;;;0.84;80.08;101303.84;5004431;28;20138;-54
2021/12/06 00:42:26;;;;;;;45.42;22.13;;;;;;;0.85;80.21;101311.59;5003855;28;20064;-54
2021/12/06 00:44:52;;;;;;;46.85;20.60;;;;;;;0.90;80.10;101304.00;5002208;28;20026;-55
2021/12/06 00:47:18;;;;;;;48.13;21.10;;;;;;;0.93;79.88;101307.28;5005028;28;20018;-52
2021/12/06 00:49:45;;;;;;;44.33;20.63;;;;;;;0.98;80.10;101299.66;4996632;28;20029;-54
2021/12/06 00:52:12;;;;;;;45.33;21.20;;;;;;;0.97;79.83;101303.31;5004929;28;20041;-56
2021/12/06 00:54:38;;;;;;;44.88;21.52;;;;;;;0.99;79.58;101294.22;4995852;28;20507;-53
2021/12/06 00:57:09;;;;;;;43.30;21.23;;;;;;;1.01;79.67;101296.69;5003489;28;20034;-53
2021/12/06 00:59:37;;;;;;;47.22;21.20;;;;;;;1.01;79.92;101304.59;5000513;28;20041;-54
2021/12/06 01:02:04;;;;;;;51.25;20.20;;;;;;;0.99;79.73;101302.13;5004376;28;20471;-52
2021/12/06 01:04:32;;;;;;;45.15;21.92;;;;;;;0.99;79.88;101306.59;4997112;28;20476;-55
2021/12/06 01:06:58;;;;;;;43.80;20.88;;;;;;;1.03;79.75;101315.81;5004904;28;20366;-53
2021/12/06 01:09:24;;;;;;;46.97;21.92;;;;;;;1.04;79.64;101313.00;5002989;28;20026;-56
2021/12/06 01:11:50;;;;;;;43.67;20.48;;;;;;;1.05;79.59;101317.28;5003965;28;20029;-54
2021/12/06 01:14:16;;;;;;;49.90;21.35;;;;;;;1.05;79.70;101316.44;5002318;28;20025;-55
2021/12/06 01:16:42;;;;;;;45.05;19.80;;;;;;;1.04;79.71;101330.66;5015857;28;20121;-53
2021/12/06 01:19:07;;;;;;;47.65;21.98;;;;;;;1.07;79.57;101330.28;5001834;28;20447;-54
2021/12/06 01:21:56;;;;;;;46.72;20.42;;;;;;;1.06;79.50;101329.47;5002942;28;20025;-54
2021/12/06 01:24:28;;;;;;;42.08;19.10;;;;;;;1.07;79.76;101335.56;4994571;28;20019;-54
2021/12/06 01:32:14;;;;;;;45.55;20.45;;;;;;;1.13;79.39;101356.03;4998826;28;20109;-50
2021/12/06 01:39:53;;;;;;;41.88;19.60;;;;;;;1.16;79.28;101366.22;5001260;28;20668;-51
2021/12/06 01:42:19;;;;;;;39.83;18.60;;;;;;;1.11;79.41;101365.94;4997381;28;20144;-51
2021/12/06 01:44:49;;;;;;;44.70;19.10;;;;;;;1.16;79.04;101368.88;4997623;28;20105;-53
2021/12/06 01:47:17;;;;;;;39.72;19.33;;;;;;;1.12;79.10;101371.03;5001923;28;20033;-57
2021/12/06 01:49:52;;;;;;;39.35;19.10;;;;;;;1.10;79.21;101366.94;5002427;28;20175;-53
2021/12/06 01:52:31;;;;;;;37.45;17.65;;;;;;;1.09;79.27;101370.56;4997453;28;20037;-53
2021/12/06 01:54:58;;;;;;;41.92;18.73;;;;;;;1.13;79.24;101377.13;5002592;28;20026;-51
2021/12/06 01:57:25;;;;;;;43.53;20.13;;;;;;;1.14;79.47;101378.78;5001072;28;20057;-56
2021/12/06 01:59:52;;;;;;;40.78;20.63;;;;;;;1.11;79.17;101377.31;4996456;28;20038;-53
2021/12/06 02:02:18;;;;;;;44.03;19.75;;;;;;;1.13;79.47;101382.41;4998309;28;20022;-54
2021/12/06 02:04:44;;;;;;;37.63;17.83;;;;;;;1.11;79.28;101387.03;4998150;28;20077;-54
2021/12/06 02:07:15;;;;;;;42.17;18.70;;;;;;;1.06;79.79;101391.97;5000139;28;20029;-52
2021/12/06 02:09:42;;;;;;;38.60;18.17;;;;;;;1.01;79.91;101381.13;4995764;28;20037;-52
2021/12/06 02:12:09;;;;;;;40.72;18.17;;;;;;;1.01;79.83;101374.03;5000334;28;20030;-51
2021/12/06 02:17:37;;;;;;;38.90;17.92;;;;;;;1.03;80.08;101369.41;4998035;28;20555;-51
2021/12/06 02:20:23;;;;;;;38.72;17.40;;;;;;;1.03;79.77;101365.94;4997558;28;20095;-51
2021/12/06 02:22:49;;;;;;;37.42;17.65;;;;;;;1.06;79.70;101368.25;4995685;28;20022;-52
2021/12/06 02:25:18;;;;;;;35.72;16.65;;;;;;;1.11;79.82;101376.50;4997245;28;20022;-53
2021/12/06 02:27:44;;;;;;;35.20;17.88;;;;;;;1.15;79.67;101370.69;4995696;28;20128;-52
2021/12/06 02:30:12;;;;;;;34.15;17.35;;;;;;;1.14;79.90;101376.13;4999052;28;20404;-50
2021/12/06 02:32:38;;;;;;;35.13;17.17;;;;;;;1.12;79.89;101376.31;5014223;23;20140;-83
2021/12/06 02:35:08;;;;;;;37.78;17.42;;;;;;;1.11;79.81;101379.13;5023458;28;20108;-84
2021/12/06 02:37:37;;;;;;;32.70;16.48;;;;;;;1.14;79.68;101381.41;5019083;28;20050;-83
2021/12/06 02:40:11;;;;;;;41.53;17.65;;;;;;;1.16;79.57;101374.16;5025857;28;20021;-83
2021/12/06 02:42:37;;;;;;;37.90;18.63;;;;;;;1.16;79.75;101377.59;5028587;28;20136;-83
2021/12/06 02:45:05;;;;;;;39.60;18.05;;;;;;;1.17;79.77;101373.16;5031717;28;20026;-83
2021/12/06 02:47:31;;;;;;;38.30;18.02;;;;;;;1.15;79.95;101375.16;5031246;28;20068;-83
2021/12/06 02:49:58;;;;;;;37.95;17.83;;;;;;;1.16;79.85;101371.50;5025826;28;20064;-83
2021/12/06 02:52:24;;;;;;;37.47;18.00;;;;;;;1.15;79.75;101369.88;5026093;28;20032;-84
2021/12/06 02:54:56;;;;;;;44.38;19.30;;;;;;;1.08;80.03;101382.13;5030768;28;20030;-83
2021/12/06 02:57:32;;;;;;;43.08;18.58;;;;;;;1.01;80.83;101381.13;5037835;28;20025;-83
2021/12/06 02:59:57;;;;;;;37.55;18.80;;;;;;;0.90;81.26;101380.50;5028311;28;20025;-83
2021/12/06 03:02:23;;;;;;;38.80;18.98;;;;;;;0.79;82.26;101383.50;5027836;28;20048;-82
2021/12/06 03:04:49;;;;;;;35.42;17.67;;;;;;;0.80;82.50;101389.59;5021206;28;20028;-83
2021/12/06 03:07:20;;;;;;;42.50;20.60;;;;;;;0.79;83.06;101388.78;5027514;28;20091;-83
2021/12/06 03:09:50;;;;;;;41.20;20.15;;;;;;;0.71;83.84;101391.41;5019257;28;20037;-84
2021/12/06 03:12:19;;;;;;;41.78;18.75;;;;;;;0.74;83.63;101387.66;5029024;28;20026;-83
2021/12/06 03:14:49;;;;;;;35.47;17.67;;;;;;;0.76;83.50;101397.03;5025233;28;20041;-83
2021/12/06 03:17:17;;;;;;;40.83;18.60;;;;;;;0.73;83.88;101396.56;5026898;28;20112;-83
2021/12/06 03:19:43;;;;;;;40.85;18.40;;;;;;;0.74;84.15;101392.91;5022926;28;20030;-83
2021/12/06 03:22:11;;;;;;;37.65;18.60;;;;;;;0.72;84.14;101395.72;5023677;28;20060;-83
2021/12/06 03:24:37;;;;;;;42.00;18.58;;;;;;;0.66;84.87;101399.00;5027546;28;20099;-83
2021/12/06 03:27:04;;;;;;;40.15;18.65;;;;;;;0.66;85.01;101396.38;5024910;28;20116;-86
2021/12/06 03:29:33;;;;;;;41.55;18.40;;;;;;;0.67;85.20;101395.38;5032240;28;20516;-85
2021/12/06 03:31:58;;;;;;;43.08;18.65;;;;;;;0.70;85.47;101400.31;5027661;28;20022;-85
2021/12/06 03:34:29;;;;;;;40.42;17.50;;;;;;;0.67;85.83;101413.84;5027226;28;20589;-85
2021/12/06 03:36:57;;;;;;;38.40;17.38;;;;;;;0.74;85.64;101408.75;5021703;28;20034;-83
2021/12/06 03:39:30;;;;;;;38.42;17.95;;;;;;;0.78;85.08;101416.16;5025173;28;20049;-84
2021/12/06 03:41:59;;;;;;;41.97;21.27;;;;;;;0.77;85.31;101422.41;5026164;28;20022;-83
2021/12/06 03:44:25;;;;;;;42.80;19.20;;;;;;;0.78;85.32;101426.69;5023670;28;20056;-83
2021/12/06 03:46:57;;;;;;;34.85;17.77;;;;;;;0.79;85.07;101432.78;5021892;28;20048;-83
2021/12/06 03:49:24;;;;;;;38.28;17.73;;;;;;;0.80;85.27;101437.91;5021657;28;20089;-84
2021/12/06 03:51:50;;;;;;;37.60;17.90;;;;;;;0.84;84.67;101436.56;5024044;28;20091;-82
2021/12/06 03:54:20;;;;;;;38.97;18.25;;;;;;;0.83;84.88;101445.47;5022831;28;20044;-83
2021/12/06 03:56:46;;;;;;;34.35;17.73;;;;;;;0.83;84.97;101442.84;5029400;28;20029;-83
2021/12/06 03:59:12;;;;;;;38.95;18.25;;;;;;;0.84;84.99;101436.56;5021146;28;20079;-83
2021/12/06 04:01:39;;;;;;;37.47;18.02;;;;;;;0.85;85.14;101448.75;5026690;28;20025;-85
2021/12/06 04:04:06;;;;;;;39.17;17.70;;;;;;;0.88;84.98;101443.16;5015780;28;20049;-84
2021/12/06 04:06:33;;;;;;;35.40;16.50;;;;;;;0.90;85.03;101454.38;5024851;28;20025;-85
2021/12/06 04:08:58;;;;;;;39.95;18.13;;;;;;;0.93;85.09;101462.97;5020662;28;20021;-83
2021/12/06 04:11:24;;;;;;;36.33;18.80;;;;;;;0.96;85.11;101465.25;5022999;28;20029;-84
2021/12/06 04:13:50;;;;;;;42.70;17.63;;;;;;;0.97;85.04;101466.91;5020984;28;20038;-83
2021/12/06 04:16:16;;;;;;;38.83;18.60;;;;;;;0.99;84.74;101475.47;5021067;28;20029;-84
2021/12/06 04:18:41;;;;;;;35.63;16.80;;;;;;;1.01;84.91;101471.66;5025993;28;20021;-83
2021/12/06 04:21:09;;;;;;;35.45;15.82;;;;;;;1.06;85.00;101466.69;5022612;28;20025;-83
2021/12/06 04:23:38;;;;;;;38.83;17.30;;;;;;;1.06;84.87;101479.06;5027138;28;20048;-84
2021/12/06 04:26:04;;;;;;;37.60;17.52;;;;;;;1.08;84.78;101464.75;5028559;28;20707;-84
2021/12/06 04:28:32;;;;;;;41.15;17.20;;;;;;;1.08;84.73;101475.31;5023285;28;20033;-84
2021/12/06 04:30:58;;;;;;;36.35;17.25;;;;;;;1.07;84.83;101486.81;5025098;28;20479;-84
2021/12/06 04:33:24;;;;;;;34.70;16.52;;;;;;;1.03;85.26;101484.69;5020270;28;20032;-85
2021/12/06 04:35:50;;;;;;;37.80;16.45;;;;;;;1.04;85.47;101478.41;5022106;28;20068;-86
2021/12/06 04:38:16;;;;;;;37.05;17.40;;;;;;;1.09;85.20;101482.22;5016282;28;20079;-85
2021/12/06 04:40:42;;;;;;;30.75;15.43;;;;;;;1.09;85.21;101497.25;5023858;28;20521;-84
2021/12/06 04:43:08;;;;;;;36.90;15.90;;;;;;;1.09;85.26;101494.59;5023801;28;20060;-84
2021/12/06 04:45:35;;;;;;;35.53;16.60;;;;;;;1.12;85.27;101497.72;5023880;28;20144;-84
2021/12/06 04:48:02;;;;;;;33.35;14.45;;;;;;;1.04;86.14;101499.53;5025574;28;20120;-84
2021/12/06 04:50:31;;;;;;;34.38;16.15;;;;;;;1.05;86.02;101499.38;5018014;28;20088;-83
2021/12/06 04:53:01;;;;;;;34.88;15.73;;;;;;;1.09;86.05;101494.59;5023882;28;20388;-84
2021/12/06 04:55:46;;;;;;;33.53;14.30;;;;;;;1.12;85.41;101499.53;5025037;28;20029;-84
2021/12/06 04:58:15;;;;;;;35.03;15.38;;;;;;;1.16;85.40;101496.38;5021667;28;20030;-84
2021/12/06 05:01:12;;;;;;;30.60;13.80;;;;;;;1.09;85.61;101500.69;5017610;28;20029;-84
2021/12/06 05:03:40;;;;;;;27.08;13.77;;;;;;;1.13;85.75;101503.81;5011689;28;20034;-84
2021/12/06 05:06:12;;;;;;;30.70;14.57;;;;;;;1.13;85.53;101504.66;5026727;28;20078;-84
2021/12/06 05:08:42;;;;;;;29.80;13.98;;;;;;;1.09;86.19;101508.63;5025366;28;20108;-87
2021/12/06 05:11:09;;;;;;;28.52;14.55;;;;;;;1.11;86.18;101511.91;5028622;28;20026;-86
2021/12/06 05:13:37;;;;;;;31.38;15.52;;;;;;;1.11;85.99;101511.09;5025244;28;20072;-85
2021/12/06 05:16:03;;;;;;;30.67;13.55;;;;;;;1.08;86.09;101509.63;5022593;28;20072;-84
2021/12/06 05:18:28;;;;;;;28.35;13.35;;;;;;;1.11;86.16;101513.72;5021825;28;20032;-84
2021/12/06 05:20:54;;;;;;;26.65;12.88;;;;;;;1.10;85.66;101515.53;5027872;28;20029;-84
2021/12/06 05:23:22;;;;;;;28.85;13.57;;;;;;;1.05;85.93;101517.00;5021908;28;20090;-85
2021/12/06 05:25:48;;;;;;;25.88;11.40;;;;;;;1.06;85.44;101522.13;5025093;28;20025;-83
2021/12/06 05:28:16;;;;;;;27.50;14.18;;;;;;;1.03;86.04;101526.91;5027490;28;20479;-84
2021/12/06 05:30:44;;;;;;;25.55;12.48;;;;;;;1.06;85.93;101539.78;5022700;28;20017;-85
2021/12/06 05:33:17;;;;;;;23.40;11.38;;;;;;;1.08;85.94;101543.09;5025284;28;20037;-84
2021/12/06 05:35:44;;;;;;;26.83;11.77;;;;;;;1.15;85.86;101538.78;5025227;28;20017;-85
2021/12/06 05:38:09;;;;;;;25.23;11.70;;;;;;;1.13;85.47;101543.41;5023522;28;20038;-86
2021/12/06 05:40:35;;;;;;;24.17;11.80;;;;;;;1.10;85.55;101551.66;5022177;28;20024;-86
2021/12/06 05:43:02;;;;;;;25.27;11.50;;;;;;;1.12;85.26;101550.50;5021616;28;20021;-86
2021/12/06 05:45:32;;;;;;;25.17;10.93;;;;;;;1.11;85.81;101551.50;5029609;28;20021;-86
2021/12/06 05:47:57;;;;;;;23.67;11.60;;;;;;;1.14;85.32;101555.63;5016540;28;20022;-85
2021/12/06 05:50:25;;;;;;;22.50;10.52;;;;;;;1.14;85.69;101560.91;5025568;28;20113;-85
2021/12/06 05:52:54;;;;;;;24.67;11.30;;;;;;;1.16;85.58;101556.28;5023134;28;20408;-85
2021/12/06 05:55:22;;;;;;;23.48;12.05;;;;;;;1.21;85.49;101561.88;5023559;28;20120;-85
2021/12/06 05:57:49;;;;;;;25.35;11.55;;;;;;;1.24;85.23;101564.16;5025331;28;20035;-85
2021/12/06 06:00:17;;;;;;;24.55;11.35;;;;;;;1.28;85.40;101560.22;5026898;28;20033;-85
2021/12/06 06:02:44;;;;;;;22.77;10.43;;;;;;;1.32;85.08;101564.19;5021761;28;20534;-85
2021/12/06 06:05:10;;;;;;;20.27;11.32;;;;;;;1.34;84.94;101567.47;5018733;28;20033;-83
2021/12/06 06:07:36;;;;;;;23.50;11.30;;;;;;;1.36;85.07;101565.47;5018637;28;20029;-83
2021/12/06 06:10:03;;;;;;;24.05;11.45;;;;;;;1.38;84.74;101574.06;5023148;28;20032;-85
2021/12/06 06:12:31;;;;;;;21.92;10.70;;;;;;;1.39;84.80;101582.81;5021917;28;20026;-84
2021/12/06 06:14:56;;;;;;;21.08;10.57;;;;;;;1.39;84.44;101588.91;5020406;28;20072;-85
2021/12/06 06:17:22;;;;;;;21.60;10.27;;;;;;;1.40;84.36;101590.56;5026531;28;20025;-86
2021/12/06 06:19:52;;;;;;;21.13;9.98;;;;;;;1.42;84.23;101593.84;5025477;28;20033;-84
2021/12/06 06:22:17;;;;;;;21.77;10.55;;;;;;;1.43;84.20;101598.13;5025035;28;20040;-84
2021/12/06 06:24:43;;;;;;;22.65;11.07;;;;;;;1.47;84.14;101596.84;5020961;28;20487;-84
2021/12/06 06:27:09;;;;;;;21.98;9.63;;;;;;;1.48;84.10;101598.47;5025870;28;20656;-85
2021/12/06 06:29:37;;;;;;;20.10;10.32;;;;;;;1.51;83.96;101597.31;5020508;28;20394;-85
2021/12/06 06:32:05;;;;;;;21.42;10.60;;;;;;;1.52;83.57;101601.59;5024811;28;20029;-85
2021/12/06 06:34:31;;;;;;;19.88;9.93;;;;;;;1.56;83.70;101599.44;5021753;28;20029;-85
2021/12/06 06:36:56;;;;;;;22.92;10.90;;;;;;;1.58;83.37;101605.38;5026237;28;20021;-84
2021/12/06 06:39:22;;;;;;;19.80;9.95;;;;;;;1.58;83.71;101606.19;5015981;28;21983;-83
2021/12/06 06:41:50;;;;;;;22.58;9.93;;;;;;;1.59;83.57;101612.31;5019186;28;20029;-84
2021/12/06 06:44:17;;;;;;;21.80;10.65;;;;;;;1.61;83.38;101613.78;5016374;28;20095;-83
2021/12/06 06:46:44;;;;;;;21.13;9.85;;;;;;;1.63;83.29;101619.75;5022064;28;20031;-84
2021/12/06 06:49:11;;;;;;;19.92;10.15;;;;;;;1.64;83.18;101615.28;5030291;28;20029;-85
2021/12/06 06:51:37;;;;;;;18.70;9.60;;;;;;;1.66;83.03;101621.22;5028466;28;20025;-84
2021/12/06 06:54:04;;;;;;;20.52;10.00;;;;;;;1.67;83.06;101623.69;5025910;28;20521;-84
2021/12/06 06:56:30;;;;;;;19.83;10.02;;;;;;;1.67;82.91;101633.44;5027071;28;20040;-85
2021/12/06 06:58:56;;;;;;;21.48;10.15;;;;;;;1.67;82.88;101638.72;5020502;28;20032;-85
2021/12/06 07:01:22;;;;;;;21.17;10.40;;;;;;;1.63;82.82;101632.97;5030081;28;20068;-84
2021/12/06 07:03:53;;;;;;;21.77;10.18;;;;;;;1.63;82.78;101632.13;5030592;28;20064;-86
2021/12/06 07:06:24;;;;;;;23.23;10.30;;;;;;;1.61;82.80;101631.44;5029230;28;20081;-84
2021/12/06 07:08:50;;;;;;;21.58;10.95;;;;;;;1.58;83.13;101634.44;5026558;28;20040;-84
2021/12/06 07:11:16;;;;;;;21.10;10.48;;;;;;;1.59;82.81;101644.84;5022940;28;20026;-83
2021/12/06 07:13:43;;;;;;;23.10;10.80;;;;;;;1.54;82.96;101641.06;5021201;28;20113;-83
2021/12/06 07:16:09;;;;;;;25.63;11.40;;;;;;;1.54;83.01;101648.97;5030543;28;20048;-84
2021/12/06 07:18:35;;;;;;;22.60;11.45;;;;;;;1.54;82.95;101644.50;5022544;28;20026;-83
2021/12/06 07:21:01;;;;;;;23.95;11.40;;;;;;;1.51;83.01;101650.13;5023675;28;20040;-84
2021/12/06 07:23:26;;;;;;;23.95;12.00;;;;;;;1.52;83.23;101651.78;5021923;28;20025;-84
2021/12/06 07:25:52;;;;;;;23.65;12.32;;;;;;;1.52;82.73;101663.16;5031591;28;20034;-86
2021/12/06 07:28:20;;;;;;;24.33;12.43;;;;;;;1.56;82.85;101657.56;5034894;28;20529;-85
2021/12/06 07:30:45;;;;;;;23.60;11.70;;;;;;;1.48;83.44;101656.59;5029075;28;20064;-83
2021/12/06 07:33:11;;;;;;;23.40;10.70;;;;;;;1.52;83.18;101668.47;5032027;28;20471;-85
2021/12/06 07:35:37;;;;;;;27.23;11.35;;;;;;;1.48;83.39;101661.88;5028452;28;20038;-84
2021/12/06 07:38:06;;;;;;;23.05;11.13;;;;;;;1.48;83.63;101661.88;5029078;28;20082;-84
2021/12/06 07:41:01;;;;;;;23.33;11.07;;;;;;;1.52;83.20;101671.09;5023575;28;20689;-84
2021/12/06 07:43:27;;;;;;;23.48;11.63;;;;;;;1.55;83.33;101666.47;5031200;28;20033;-84
2021/12/06 07:45:53;;;;;;;24.95;11.07;;;;;;;1.55;83.01;101664.66;5034636;28;20037;-84
2021/12/06 07:48:19;;;;;;;24.30;12.27;;;;;;;1.52;83.19;101660.53;5030606;28;20052;-84
2021/12/06 07:50:45;;;;;;;27.25;11.68;;;;;;;1.55;83.27;101667.28;5029240;28;20606;-84
2021/12/06 07:53:11;;;;;;;23.42;11.82;;;;;;;1.58;83.19;101671.41;5030162;28;20098;-84
2021/12/06 07:55:37;;;;;;;19.85;10.70;;;;;;;1.61;83.08;101671.06;5028163;28;20055;-85
2021/12/06 07:58:04;;;;;;;25.35;11.90;;;;;;;1.66;82.76;101666.13;5025084;28;20030;-84
2021/12/06 08:00:40;;;;;;;23.55;12.30;;;;;;;1.65;82.33;101678.53;5024895;28;20026;-84
2021/12/06 08:03:08;;;;;;;26.35;13.23;;;;;;;1.64;82.49;101673.41;5025675;28;20483;-85
2021/12/06 08:05:47;;;;;;;29.75;12.00;;;;;;;1.64;82.56;101676.06;5024960;28;20494;-85
2021/12/06 08:08:17;;;;;;;24.25;12.25;;;;;;;1.64;82.39;101663.66;5024430;28;20569;-84
2021/12/06 08:10:52;;;;;;;21.98;12.05;;;;;;;1.66;82.41;101676.72;5022814;28;20060;-86
2021/12/06 08:13:22;;;;;;;21.90;11.07;;;;;;;1.66;82.35;101677.53;5021308;28;20026;-87
2021/12/06 08:15:54;;;;;;;23.33;11.85;;;;;;;1.65;82.25;101667.13;5026776;28;20483;-87
2021/12/06 08:18:23;;;;;;;21.45;10.90;;;;;;;1.61;82.41;101669.25;5020422;28;20072;-87
2021/12/06 08:20:49;;;;;;;23.13;11.98;;;;;;;1.50;83.21;101666.97;5023423;28;20056;-84
2021/12/06 08:23:16;;;;;;;21.08;11.18;;;;;;;1.58;82.94;101668.78;5028403;28;20087;-85
2021/12/06 08:25:44;;;;;;;28.67;12.02;;;;;;;1.54;82.87;101678.03;5029377;28;20506;-85
2021/12/06 08:28:10;;;;;;;22.75;10.95;;;;;;;1.56;82.85;101678.69;5027759;28;20087;-84
2021/12/06 08:30:36;;;;;;;25.50;12.32;;;;;;;1.59;82.86;101681.00;5024844;28;20049;-84
2021/12/06 08:33:04;;;;;;;22.88;13.00;;;;;;;1.57;82.98;101678.50;5025066;28;20040;-85
2021/12/06 08:35:34;;;;;;;25.75;11.90;;;;;;;1.56;83.20;101681.31;5022168;28;20057;-85
2021/12/06 08:38:01;;;;;;;31.40;12.93;;;;;;;1.58;83.14;101672.25;5022684;28;20122;-84
2021/12/06 08:40:28;;;;;;;31.08;13.32;;;;;;;1.59;82.98;101675.69;5022794;28;20389;-84
2021/12/06 08:42:55;;;;;;;27.02;13.10;;;;;;;1.63;83.09;101677.03;5022969;28;20044;-84
2021/12/06 08:45:21;;;;;;;29.63;12.80;;;;;;;1.64;82.89;101684.81;5023339;28;20497;-84
2021/12/06 08:47:47;;;;;;;26.63;13.18;;;;;;;1.70;82.75;101689.41;5025648;28;20120;-84
2021/12/06 08:50:18;;;;;;;32.75;13.93;;;;;;;1.70;82.71;101686.75;5025929;28;20104;-84
2021/12/06 08:52:44;;;;;;;31.70;13.40;;;;;;;1.71;82.37;101690.22;5023339;28;20038;-84
2021/12/06 08:55:11;;;;;;;37.30;15.50;;;;;;;1.74;82.17;101693.38;5022243;28;20029;-84
2021/12/06 08:57:37;;;;;;;30.58;13.73;;;;;;;1.70;82.43;101692.06;5026898;28;20025;-87
2021/12/06 09:00:25;;;;;;;29.88;13.77;;;;;;;1.69;82.40;101695.69;5021426;28;20033;-84
2021/12/06 09:02:51;;;;;;;36.28;16.25;;;;;;;1.74;82.15;101703.09;5025034;28;20091;-85
2021/12/06 09:05:23;;;;;;;37.42;15.95;;;;;;;1.70;82.25;101707.06;5024456;28;20024;-84
2021/12/06 09:07:51;;;;;;;35.83;14.40;;;;;;;1.71;82.41;101698.16;5020715;28;20034;-85
2021/12/06 09:10:17;;;;;;;31.38;14.63;;;;;;;1.70;82.50;101691.22;5020971;28;20487;-84
2021/12/06 09:12:43;;;;;;;28.80;12.68;;;;;;;1.71;82.21;101695.53;5025706;28;20040;-84
2021/12/06 09:15:16;;;;;;;29.73;14.02;;;;;;;1.68;82.72;101706.41;5012312;28;20483;-85
2021/12/06 09:17:52;;;;;;;32.75;14.75;;;;;;;1.70;82.28;101713.19;5023415;28;20040;-86
2021/12/06 09:20:27;;;;;;;28.02;12.63;;;;;;;1.73;82.37;101709.38;5023149;28;20029;-86
2021/12/06 09:22:56;;;;;;;24.98;13.00;;;;;;;1.77;82.21;101705.41;5027000;28;20034;-87
2021/12/06 09:25:22;;;;;;;25.98;12.98;;;;;;;1.75;82.24;101704.75;5024841;28;20095;-86
2021/12/06 09:27:50;;;;;;;25.88;12.50;;;;;;;1.76;82.22;101712.50;5025643;28;20484;-86
2021/12/06 09:30:20;;;;;;;23.15;11.55;;;;;;;1.78;82.21;101707.06;5020870;28;20021;-87
2021/12/06 09:32:46;;;;;;;25.00;12.40;;;;;;;1.83;82.05;101717.16;5027369;28;20032;-86
2021/12/06 09:35:18;;;;;;;24.75;12.02;;;;;;;1.86;82.08;101712.34;5023812;28;20026;-85
2021/12/06 09:37:44;;;;;;;25.40;12.35;;;;;;;1.89;82.05;101717.28;5018818;28;20547;-85
2021/12/06 09:40:11;;;;;;;24.63;11.98;;;;;;;1.90;82.01;101708.38;5019846;28;20137;-87
2021/12/06 09:42:42;;;;;;;20.65;12.18;;;;;;;1.93;81.97;101710.66;5016991;28;20026;-86
2021/12/06 09:45:11;;;;;;;24.00;11.50;;;;;;;1.96;82.01;101706.88;5026552;28;20407;-87
2021/12/06 09:47:36;;;;;;;18.80;11.05;;;;;;;1.99;81.78;101706.56;5021990;28;20022;-86
2021/12/06 09:50:04;;;;;;;26.92;11.13;;;;;;;2.01;81.72;101708.03;5017150;28;20048;-87
2021/12/06 09:52:30;;;;;;;26.45;11.15;;;;;;;2.04;81.72;101709.50;5020745;28;20025;-87
2021/12/06 09:54:58;;;;;;;24.08;11.40;;;;;;;2.01;81.70;101704.56;5022579;28;20080;-86
2021/12/06 09:57:28;;;;;;;24.50;11.75;;;;;;;2.08;81.44;101706.34;5027651;28;20129;-86
2021/12/06 09:59:54;;;;;;;25.27;13.13;;;;;;;2.08;81.50;101703.72;5025272;28;20057;-87
2021/12/06 10:02:20;;;;;;;25.35;12.70;;;;;;;2.14;81.63;101704.84;5022462;28;20534;-86
2021/12/06 10:04:53;;;;;;;25.52;12.05;;;;;;;2.15;81.26;101706.50;5023226;28;20029;-87
2021/12/06 10:07:23;;;;;;;24.02;12.18;;;;;;;2.17;81.32;101712.47;5023348;28;20057;-87
2021/12/06 10:09:51;;;;;;;19.90;9.75;;;;;;;2.21;80.86;101705.00;5022336;28;20546;-87
2021/12/06 10:12:24;;;;;;;23.33;11.93;;;;;;;2.21;81.24;101705.00;5019841;28;20116;-88
2021/12/06 10:14:50;;;;;;;22.73;10.57;;;;;;;2.25;80.93;101707.13;5018992;28;20029;-88
2021/12/06 10:17:18;;;;;;;22.67;11.52;;;;;;;2.30;80.71;101693.41;5022616;28;20125;-89
2021/12/06 10:19:48;;;;;;;22.05;11.18;;;;;;;2.33;80.94;101701.81;5024516;28;20047;-88
2021/12/06 10:22:15;;;;;;;21.67;10.60;;;;;;;2.35;80.74;101683.16;5020812;28;20025;-88
2021/12/06 10:24:49;;;;;;;22.92;10.45;;;;;;;2.39;80.67;101692.38;5028008;28;20033;-89
2021/12/06 10:27:18;;;;;;;23.30;11.40;;;;;;;2.41;80.67;101685.94;5024586;28;20048;-88
2021/12/06 10:29:54;;;;;;;16.42;9.23;;;;;;;2.45;80.46;101686.41;5019711;28;20037;-87
2021/12/06 10:32:25;;;;;;;20.42;9.35;;;;;;;2.49;80.38;101681.59;5021361;28;20108;-90
2021/12/06 10:35:06;;;;;;;19.85;10.88;;;;;;;2.50;80.33;101681.41;5013100;28;20030;-89
2021/12/06 10:37:33;;;;;;;19.95;9.70;;;;;;;2.53;80.32;101680.28;5020099;28;20032;-90
2021/12/06 10:40:06;;;;;;;16.90;9.18;;;;;;;2.54;80.22;101688.03;5018226;28;20515;-89
2021/12/06 10:42:37;;;;;;;17.58;8.48;;;;;;;2.53;80.10;101675.81;5035802;28;20022;-89
2021/12/06 10:45:16;;;;;;;18.98;9.80;;;;;;;2.51;80.57;101680.41;5020312;28;20037;-88
2021/12/06 10:47:44;;;;;;;21.88;9.60;;;;;;;2.54;80.30;101684.56;5034703;28;20041;-88
2021/12/06 10:50:18;;;;;;;17.50;10.18;;;;;;;2.51;80.23;101679.59;5030673;28;20029;-89
2021/12/06 10:53:04;;;;;;;16.50;9.63;;;;;;;2.48;79.95;101677.28;5019987;28;20038;-88
2021/12/06 10:55:32;;;;;;;16.73;8.75;;;;;;;2.47;79.94;101673.00;5024586;28;20715;-88
2021/12/06 10:58:02;;;;;;;20.23;10.00;;;;;;;2.46;80.26;101674.81;5021824;28;20472;-88
2021/12/06 11:00:36;;;;;;;16.85;9.35;;;;;;;2.45;79.70;101673.19;5021942;28;20026;-88
2021/12/06 11:03:30;;;;;;;17.77;8.50;;;;;;;2.43;80.20;101661.94;5029123;28;20030;-88
2021/12/06 11:06:04;;;;;;;17.00;9.05;;;;;;;2.42;80.08;101665.59;5020811;28;20033;-89
2021/12/06 11:08:37;;;;;;;;;;;;;;;2.32;80.24;101662.31;5025000;28;20116;-87
2021/12/06 11:11:17;;;;;;;17.08;9.45;;;;;;;2.38;80.14;101657.19;5020490;28;19920;-87
2021/12/06 11:13:55;;;;;;;18.35;9.27;;;;;;;2.37;80.13;101652.06;5019934;28;20131;-88
2021/12/06 11:16:21;;;;;;;17.05;8.82;;;;;;;2.41;79.98;101653.38;5024720;28;20056;-88
2021/12/06 11:19:02;;;;;;;19.40;10.30;;;;;;;2.38;79.98;101653.72;5025950;28;20744;-89
2021/12/06 11:21:38;;;;;;;17.73;9.27;;;;;;;2.32;80.18;101654.38;5019872;28;20025;-89
2021/12/06 11:24:08;;;;;;;24.10;9.95;;;;;;;2.34;80.26;101657.72;5017133;28;20526;-87
2021/12/06 11:26:45;;;;;;;18.98;9.40;;;;;;;2.35;80.20;101646.94;5028678;28;20025;-88
2021/12/06 11:29:16;;;;;;;19.35;10.52;;;;;;;2.35;80.49;101648.78;5020821;28;20124;-88
2021/12/06 11:31:49;;;;;;;16.70;9.13;;;;;;;2.35;80.15;101648.78;5024104;28;20025;-88
2021/12/06 11:34:29;;;;;;;20.48;9.25;;;;;;;2.36;80.13;101645.13;5028056;28;20112;-88
2021/12/06 11:37:22;;;;;;;18.35;9.40;;;;;;;2.37;80.25;101637.03;5021217;28;20081;-90
2021/12/06 11:40:04;;;;;;;18.55;9.38;;;;;;;2.31;80.45;101642.16;5020010;28;20049;-89
2021/12/06 11:43:03;;;;;;;22.00;8.95;;;;;;;2.29;80.35;101642.34;5016208;28;20064;-90